createdAt,value
2019-04-10T00:01:34.119Z,39.33
2019-04-10T00:04:07.546Z,42.03
2019-04-10T00:06:37.754Z,43.50
2019-04-10T00:09:08.697Z,40.10
2019-04-10T00:11:39.022Z,40.97
2019-04-10T00:14:10.299Z,42.10
2019-04-10T00:16:40.554Z,39.33
2019-04-10T00:19:10.721Z,40.13
2019-04-10T00:21:42.086Z,36.83
2019-04-10T00:24:13.566Z,46.97
2019-04-10T00:26:46.211Z,41.17
2019-04-10T00:29:18.879Z,42.80
2019-04-10T00:31:51.557Z,44.87
2019-04-10T00:34:23.370Z,43.10
2019-04-10T00:36:55.457Z,41.60
2019-04-10T00:39:28.602Z,40.50
2019-04-10T00:41:59.414Z,42.47
2019-04-10T00:44:30.162Z,41.60
2019-04-10T00:47:00.304Z,39.97
2019-04-10T00:49:31.543Z,39.30
2019-04-10T00:52:03.909Z,43.93
2019-04-10T00:54:35.263Z,41.40
2019-04-10T00:57:07.371Z,39.33
2019-04-10T00:59:38.345Z,45.20
2019-04-10T01:02:12.199Z,40.83
2019-04-10T01:04:42.851Z,36.60
2019-04-10T01:07:14.784Z,38.93
2019-04-10T01:09:45.872Z,38.70
2019-04-10T01:12:19.493Z,40.60
2019-04-10T01:14:50.387Z,40.40
2019-04-10T01:17:22.252Z,40.67
2019-04-10T01:19:54.487Z,42.27
2019-04-10T01:22:25.930Z,40.00
2019-04-10T01:24:57.794Z,41.20
2019-04-10T01:27:28.814Z,37.93
2019-04-10T01:30:02.448Z,39.57
2019-04-10T01:32:34.835Z,40.43
2019-04-10T01:35:07.882Z,37.77
2019-04-10T01:37:48.760Z,40.40
2019-04-10T01:40:10.768Z,40.90
2019-04-10T01:42:43.173Z,38.07
2019-04-10T01:45:13.890Z,39.03
2019-04-10T01:47:45.597Z,38.80
2019-04-10T01:50:18.052Z,39.73
2019-04-10T01:52:49.666Z,40.40
2019-04-10T01:55:26.655Z,40.67
2019-04-10T01:57:54.719Z,37.73
2019-04-10T02:00:26.306Z,39.57
2019-04-10T02:02:57.948Z,39.07
2019-04-10T02:05:30.317Z,41.50
2019-04-10T02:08:08.599Z,37.63
2019-04-10T02:10:36.340Z,42.67
2019-04-10T02:13:07.430Z,38.67
2019-04-10T02:15:38.915Z,43.00
2019-04-10T02:18:09.569Z,43.80
2019-04-10T02:20:40.285Z,41.83
2019-04-10T02:23:12.199Z,38.83
2019-04-10T02:25:43.602Z,39.70
2019-04-10T02:28:15.551Z,41.27
2019-04-10T02:30:47.935Z,38.80
2019-04-10T02:33:19.760Z,38.23
2019-04-10T02:35:50.799Z,37.50
2019-04-10T02:38:38.998Z,37.53
2019-04-10T02:40:53.298Z,37.33
2019-04-10T02:43:23.806Z,40.43
2019-04-10T02:45:55.908Z,39.27
2019-04-10T02:48:27.558Z,40.43
2019-04-10T02:50:59.652Z,36.17
2019-04-10T02:53:31.654Z,34.70
2019-04-10T02:56:03.095Z,41.33
2019-04-10T02:58:34.356Z,36.73
2019-04-10T03:01:07.005Z,33.07
2019-04-10T03:03:38.452Z,39.20
2019-04-10T03:06:10.014Z,38.07
2019-04-10T03:08:59.237Z,37.27
2019-04-10T03:11:24.388Z,39.07
2019-04-10T03:13:55.628Z,37.13
2019-04-10T03:16:27.310Z,34.80
2019-04-10T03:18:57.771Z,33.30
2019-04-10T03:21:29.338Z,36.50
2019-04-10T03:24:00.629Z,37.43
2019-04-10T03:26:32.057Z,42.23
2019-04-10T03:29:03.225Z,33.87
2019-04-10T03:31:36.901Z,36.83
2019-04-10T03:34:38.885Z,35.70
2019-04-10T03:37:08.030Z,34.40
2019-04-10T03:39:40.512Z,34.97
2019-04-10T03:42:12.519Z,33.33
2019-04-10T03:44:45.244Z,34.63
2019-04-10T03:47:17.926Z,35.33
2019-04-10T03:49:49.832Z,34.43
2019-04-10T03:52:21.516Z,35.47
2019-04-10T03:54:55.258Z,32.87
2019-04-10T03:57:26.794Z,36.90
2019-04-10T03:59:58.184Z,34.50
2019-04-10T04:02:31.537Z,36.57
2019-04-10T04:05:04.407Z,36.97
2019-04-10T04:07:36.926Z,33.83
2019-04-10T04:10:07.217Z,35.33
2019-04-10T04:12:37.382Z,35.13
2019-04-10T04:15:09.421Z,34.60
2019-04-10T04:17:40.144Z,31.83
2019-04-10T04:20:11.212Z,33.87
2019-04-10T04:22:41.844Z,32.57
2019-04-10T04:25:12.894Z,35.27
2019-04-10T04:27:44.241Z,33.97
2019-04-10T04:30:17.006Z,33.47
2019-04-10T04:32:48.380Z,36.70
2019-04-10T04:35:24.253Z,34.00
2019-04-10T04:37:56.011Z,33.17
2019-04-10T04:40:27.910Z,35.70
2019-04-10T04:43:00.159Z,35.30
2019-04-10T04:45:30.787Z,33.03
2019-04-10T04:48:01.903Z,33.77
2019-04-10T04:50:34.097Z,34.40
2019-04-10T04:53:07.245Z,32.73
2019-04-10T04:55:37.446Z,35.30
2019-04-10T04:58:09.610Z,34.27
2019-04-10T05:00:40.269Z,35.63
2019-04-10T05:03:11.981Z,29.47
2019-04-10T05:05:43.137Z,32.83
2019-04-10T05:08:15.310Z,29.97
2019-04-10T05:10:47.451Z,33.20
2019-04-10T05:13:18.115Z,30.53
2019-04-10T05:15:49.926Z,31.53
2019-04-10T05:18:21.215Z,33.33
2019-04-10T05:20:52.642Z,32.97
2019-04-10T05:23:24.391Z,31.87
2019-04-10T05:25:56.160Z,31.23
2019-04-10T05:28:28.548Z,32.73
2019-04-10T05:30:59.568Z,29.53
2019-04-10T05:33:31.735Z,30.63
2019-04-10T05:36:04.737Z,33.50
2019-04-10T05:38:35.757Z,37.03
2019-04-10T05:41:09.131Z,31.83
2019-04-10T05:43:40.799Z,29.93
2019-04-10T05:46:12.426Z,32.47
2019-04-10T05:48:44.132Z,31.60
2019-04-10T05:51:15.079Z,33.37
2019-04-10T05:53:47.323Z,31.77
2019-04-10T05:56:20.689Z,32.50
2019-04-10T05:58:51.405Z,33.73
2019-04-10T06:01:33.225Z,32.70
2019-04-10T06:03:54.592Z,31.43
2019-04-10T06:06:25.293Z,29.33
2019-04-10T06:08:59.082Z,31.00
2019-04-10T06:11:29.274Z,27.67
2019-04-10T06:14:01.148Z,30.10
2019-04-10T06:16:32.252Z,28.77
2019-04-10T06:19:03.957Z,31.40
2019-04-10T06:21:34.102Z,28.37
2019-04-10T06:24:05.802Z,30.10
2019-04-10T06:26:37.568Z,34.70
2019-04-10T06:29:08.637Z,29.07
2019-04-10T06:31:39.119Z,30.93
2019-04-10T06:34:09.449Z,27.93
2019-04-10T06:36:41.718Z,28.40
2019-04-10T06:39:14.105Z,30.90
2019-04-10T06:41:44.577Z,31.90
2019-04-10T06:44:15.222Z,32.90
2019-04-10T06:46:46.584Z,29.87
2019-04-10T06:49:17.831Z,26.23
2019-04-10T06:51:49.312Z,31.17
2019-04-10T06:54:23.225Z,29.63
2019-04-10T06:56:54.548Z,29.07
2019-04-10T06:59:26.537Z,30.93
2019-04-10T07:02:01.311Z,28.40
2019-04-10T07:04:28.569Z,27.83
2019-04-10T07:07:08.768Z,33.87
2019-04-10T07:09:37.839Z,30.87
2019-04-10T07:12:08.105Z,29.90
2019-04-10T07:14:45.551Z,28.00
2019-04-10T07:17:14.523Z,29.73
2019-04-10T07:19:47.455Z,34.30
2019-04-10T07:22:17.803Z,28.17
2019-04-10T07:24:54.420Z,26.80
2019-04-10T07:27:26.323Z,33.47
2019-04-10T07:29:59.779Z,31.63
2019-04-10T07:32:31.071Z,30.73
2019-04-10T07:35:03.280Z,32.67
2019-04-10T07:37:36.205Z,28.07
2019-04-10T07:40:10.243Z,27.13
2019-04-10T07:42:43.304Z,27.73
2019-04-10T07:45:14.970Z,28.47
2019-04-10T07:47:46.241Z,26.63
2019-04-10T07:50:18.353Z,28.93
2019-04-10T07:52:48.619Z,27.07
2019-04-10T07:55:21.092Z,31.33
2019-04-10T07:57:53.213Z,27.13
2019-04-10T08:00:25.085Z,27.87
2019-04-10T08:02:55.443Z,27.50
2019-04-10T08:05:27.238Z,29.83
2019-04-10T08:07:58.966Z,29.83
2019-04-10T08:10:30.753Z,29.87
2019-04-10T08:13:02.505Z,28.67
2019-04-10T08:15:33.662Z,29.27
2019-04-10T08:18:04.585Z,28.90
2019-04-10T08:20:35.286Z,29.27
2019-04-10T08:23:07.532Z,32.40
2019-04-10T08:25:40.942Z,29.57
2019-04-10T08:28:12.528Z,27.97
2019-04-10T08:30:43.950Z,27.20
2019-04-10T08:33:14.233Z,27.77
2019-04-10T08:35:45.590Z,26.50
2019-04-10T08:38:17.276Z,27.97
2019-04-10T08:40:49.235Z,27.57
2019-04-10T08:43:20.206Z,26.20
2019-04-10T08:45:52.214Z,25.67
2019-04-10T08:48:24.004Z,26.80
2019-04-10T08:50:56.730Z,26.93
2019-04-10T08:53:28.659Z,26.57
2019-04-10T08:55:59.732Z,29.97
2019-04-10T08:58:30.766Z,27.27
2019-04-10T09:01:02.908Z,27.23
2019-04-10T09:03:33.062Z,26.43
2019-04-10T09:06:03.252Z,29.70
2019-04-10T09:08:37.178Z,28.83
2019-04-10T09:11:09.098Z,28.23
2019-04-10T09:13:40.970Z,27.63
2019-04-10T09:16:12.171Z,27.77
2019-04-10T09:18:42.755Z,27.13
2019-04-10T09:21:13.921Z,29.80
2019-04-10T09:23:51.753Z,25.77
2019-04-10T09:26:20.283Z,30.57
2019-04-10T09:28:50.851Z,30.10
2019-04-10T09:31:21.808Z,28.80
2019-04-10T09:33:51.983Z,26.60
2019-04-10T09:36:22.237Z,24.43
2019-04-10T09:38:53.565Z,29.90
2019-04-10T09:41:25.911Z,25.00
2019-04-10T09:43:56.333Z,28.33
2019-04-10T09:46:26.871Z,27.50
2019-04-10T09:48:57.012Z,27.23
2019-04-10T09:51:28.087Z,28.13
2019-04-10T09:53:59.242Z,26.57
2019-04-10T09:56:32.880Z,28.30
2019-04-10T09:59:03.192Z,24.83
2019-04-10T10:01:36.390Z,27.30
2019-04-10T10:04:11.487Z,24.10
2019-04-10T10:06:41.768Z,28.57
2019-04-10T10:09:12.668Z,25.60
2019-04-10T10:11:44.855Z,27.03
2019-04-10T10:14:15.502Z,25.63
2019-04-10T10:16:46.350Z,23.07
2019-04-10T10:19:16.503Z,30.03
2019-04-10T10:21:46.691Z,23.77
2019-04-10T10:24:16.977Z,22.63
2019-04-10T10:26:47.738Z,26.37
2019-04-10T10:29:22.134Z,23.77
2019-04-10T10:31:53.732Z,23.43
2019-04-10T10:34:24.693Z,23.57
2019-04-10T10:36:55.948Z,23.63
2019-04-10T10:39:27.013Z,23.53
2019-04-10T10:41:58.569Z,27.03
2019-04-10T10:44:30.167Z,26.37
2019-04-10T10:47:11.787Z,25.80
2019-04-10T10:49:42.748Z,27.17
2019-04-10T10:52:13.300Z,24.67
2019-04-10T10:54:43.576Z,25.53
2019-04-10T10:57:15.132Z,23.13
2019-04-10T10:59:46.132Z,22.70
2019-04-10T11:02:17.107Z,23.00
2019-04-10T11:04:49.118Z,20.47
2019-04-10T11:07:20.791Z,22.30
2019-04-10T11:09:52.932Z,23.57
2019-04-10T11:12:24.129Z,22.87
2019-04-10T11:14:56.989Z,18.47
2019-04-10T11:17:29.450Z,19.03
2019-04-10T11:20:00.058Z,18.00
2019-04-10T11:22:33.156Z,20.50
2019-04-10T11:25:06.014Z,18.83
2019-04-10T11:27:39.304Z,23.13
2019-04-10T11:30:12.361Z,20.07
2019-04-10T11:32:44.486Z,18.63
2019-04-10T11:35:17.422Z,18.20
2019-04-10T11:37:53.227Z,17.97
2019-04-10T11:40:27.641Z,22.27
2019-04-10T11:43:05.096Z,19.10
2019-04-10T11:45:43.136Z,19.43
2019-04-10T11:48:12.712Z,17.45
2019-04-10T11:50:44.527Z,17.13
2019-04-10T11:53:19.049Z,18.73
2019-04-10T11:55:53.086Z,16.40
2019-04-10T11:58:25.211Z,17.37
2019-04-10T12:00:58.052Z,16.73
2019-04-10T12:03:28.329Z,16.87
2019-04-10T12:05:59.837Z,20.90
2019-04-10T12:08:55.274Z,14.05
2019-04-10T12:13:36.582Z,17.65
2019-04-10T12:16:09.278Z,20.08
2019-04-10T12:18:40.631Z,18.00
2019-04-10T12:21:11.874Z,18.07
2019-04-10T12:23:47.345Z,17.10
2019-04-10T12:26:21.992Z,17.27
2019-04-10T12:28:54.392Z,18.62
2019-04-10T12:31:25.835Z,17.67
2019-04-10T12:33:57.131Z,17.65
2019-04-10T12:36:28.804Z,17.57
2019-04-10T12:39:03.703Z,17.67
2019-04-10T12:41:36.527Z,20.43
2019-04-10T12:44:07.922Z,17.65
2019-04-10T12:46:39.467Z,20.72
2019-04-10T12:49:09.772Z,18.42
2019-04-10T12:51:41.664Z,15.55
2019-04-10T12:54:13.212Z,19.55
2019-04-10T12:56:43.721Z,22.65
2019-04-10T12:59:15.287Z,15.88
2019-04-10T13:01:47.036Z,20.35
2019-04-10T13:04:18.027Z,22.48
2019-04-10T13:06:51.018Z,18.05
2019-04-10T13:09:22.132Z,20.37
2019-04-10T13:11:53.097Z,20.05
2019-04-10T13:14:24.428Z,21.57
2019-04-10T13:16:54.633Z,19.50
2019-04-10T13:19:24.932Z,16.65
2019-04-10T13:21:57.867Z,15.72
2019-04-10T13:24:30.355Z,21.40
2019-04-10T13:27:00.567Z,17.80
2019-04-10T13:29:32.227Z,22.30
2019-04-10T13:32:03.488Z,21.10
2019-04-10T13:34:33.666Z,22.22
2019-04-10T13:37:04.098Z,18.92
2019-04-10T13:39:36.965Z,17.55
2019-04-10T13:42:09.306Z,17.77
2019-04-10T13:44:42.781Z,17.20
2019-04-10T13:47:13.398Z,22.05
2019-04-10T13:49:44.199Z,19.30
2019-04-10T13:52:15.964Z,16.32
2019-04-10T13:54:47.195Z,16.77
2019-04-10T13:57:18.150Z,15.20
2019-04-10T13:59:49.082Z,14.80
2019-04-10T14:02:32.310Z,15.40
2019-04-10T14:05:05.274Z,15.55
2019-04-10T14:07:36.057Z,15.85
2019-04-10T14:10:10.518Z,15.38
2019-04-10T14:12:41.172Z,17.20
2019-04-10T14:15:13.921Z,15.32
2019-04-10T14:17:44.176Z,14.05
2019-04-10T14:20:17.321Z,15.25
2019-04-10T14:23:08.433Z,11.38
2019-04-10T14:26:18.451Z,15.23
2019-04-10T14:28:51.394Z,13.00
2019-04-10T14:31:34.701Z,15.50
2019-04-10T14:34:05.500Z,13.72
2019-04-10T14:36:38.068Z,13.05
2019-04-10T14:39:18.293Z,11.80
2019-04-10T14:41:46.974Z,13.58
2019-04-10T14:44:18.828Z,14.87
2019-04-10T14:46:49.694Z,15.18
2019-04-10T14:49:20.869Z,13.62
2019-04-10T14:51:52.395Z,13.93
2019-04-10T14:54:23.801Z,10.88
2019-04-10T14:56:54.604Z,13.20
2019-04-10T14:59:24.734Z,16.93
2019-04-10T15:01:56.458Z,20.40
2019-04-10T15:04:26.950Z,14.83
2019-04-10T15:06:57.584Z,12.50
2019-04-10T15:09:29.217Z,15.35
2019-04-10T15:12:00.434Z,14.30
2019-04-10T15:14:33.873Z,19.17
2019-04-10T15:17:04.797Z,13.43
2019-04-10T15:19:36.424Z,14.28
2019-04-10T15:22:07.688Z,14.58
2019-04-10T15:24:37.933Z,14.03
2019-04-10T15:27:09.640Z,15.58
2019-04-10T15:29:40.871Z,15.38
2019-04-10T15:32:12.780Z,14.60
2019-04-10T15:34:43.743Z,19.20
2019-04-10T15:37:15.213Z,16.10
2019-04-10T15:39:46.589Z,15.68
2019-04-10T15:42:21.768Z,20.02
2019-04-10T15:44:52.793Z,16.62
2019-04-10T15:47:23.506Z,20.00
2019-04-10T15:49:53.707Z,21.10
2019-04-10T15:52:24.372Z,19.70
2019-04-10T15:54:59.365Z,19.53
2019-04-10T15:57:44.253Z,20.87
2019-04-10T16:00:10.722Z,20.93
2019-04-10T16:02:44.792Z,24.50
2019-04-10T16:05:16.097Z,25.07
2019-04-10T16:07:46.928Z,27.47
2019-04-10T16:10:33.949Z,27.60
2019-04-10T16:13:10.848Z,23.83
2019-04-10T16:15:45.029Z,22.50
2019-04-10T16:18:18.970Z,23.70
2019-04-10T16:20:50.743Z,23.97
2019-04-10T16:23:40.104Z,24.10
2019-04-10T16:26:11.397Z,25.87
2019-04-10T16:28:43.133Z,23.40
2019-04-10T16:31:15.138Z,20.00
2019-04-10T16:33:45.594Z,22.20
2019-04-10T16:36:17.161Z,21.90
2019-04-10T16:38:47.458Z,22.97
2019-04-10T16:41:17.768Z,24.93
2019-04-10T16:43:52.795Z,21.20
2019-04-10T16:46:25.155Z,23.30
2019-04-10T16:48:56.706Z,23.80
2019-04-10T16:51:28.094Z,21.13
2019-04-10T16:53:58.739Z,22.00
2019-04-10T16:56:32.209Z,24.03
2019-04-10T16:59:08.764Z,25.50
2019-04-10T17:01:39.685Z,23.23
2019-04-10T17:04:11.235Z,20.97
2019-04-10T17:06:44.226Z,20.20
2019-04-10T17:09:19.131Z,23.60
2019-04-10T17:11:51.219Z,23.57
2019-04-10T17:14:23.832Z,24.07
2019-04-10T17:16:55.681Z,24.13
2019-04-10T17:19:28.879Z,24.50
2019-04-10T17:22:00.622Z,23.57
2019-04-10T17:24:31.396Z,21.47
2019-04-10T17:27:02.071Z,19.57
2019-04-10T17:29:39.048Z,20.77
2019-04-10T17:32:11.089Z,23.23
2019-04-10T17:34:43.088Z,21.40
2019-04-10T17:37:13.766Z,21.37
2019-04-10T17:39:45.211Z,22.47
2019-04-10T17:42:16.902Z,18.37
2019-04-10T17:44:49.779Z,21.63
2019-04-10T17:47:23.203Z,18.63
2019-04-10T17:49:53.947Z,24.53
2019-04-10T17:52:27.114Z,20.80
2019-04-10T17:55:00.951Z,20.97
2019-04-10T17:57:38.361Z,21.13
2019-04-10T18:00:09.208Z,22.50
2019-04-10T18:02:41.328Z,18.90
2019-04-10T18:05:12.661Z,20.60
2019-04-10T18:07:44.049Z,18.30
2019-04-10T18:10:16.114Z,19.40
2019-04-10T18:12:46.447Z,24.17
2019-04-10T18:15:17.663Z,21.03
2019-04-10T18:17:49.474Z,26.17
2019-04-10T18:20:19.983Z,23.87
2019-04-10T18:22:51.869Z,21.33
2019-04-10T18:25:22.260Z,17.93
2019-04-10T18:27:52.889Z,19.80
2019-04-10T18:30:24.825Z,20.33
2019-04-10T18:32:56.169Z,21.10
2019-04-10T18:35:27.437Z,18.23
2019-04-10T18:37:58.659Z,23.17
2019-04-10T18:40:30.041Z,20.57
2019-04-10T18:43:02.294Z,20.67
2019-04-10T18:45:35.616Z,19.53
2019-04-10T18:48:08.618Z,19.20
2019-04-10T18:50:40.606Z,19.87
2019-04-10T18:53:13.112Z,20.00
2019-04-10T18:55:44.812Z,18.67
2019-04-10T18:58:21.183Z,19.47
2019-04-10T19:01:13.181Z,18.50
2019-04-10T19:03:59.224Z,20.47
2019-04-10T19:06:36.269Z,18.93
2019-04-10T19:09:14.299Z,18.77
2019-04-10T19:11:41.538Z,18.27
2019-04-10T19:14:12.289Z,18.00
2019-04-10T19:16:43.659Z,19.60
2019-04-10T19:19:14.588Z,20.47
2019-04-10T19:21:46.136Z,18.37
2019-04-10T19:24:17.354Z,20.30
2019-04-10T19:26:48.086Z,19.10
2019-04-10T19:29:19.245Z,17.47
2019-04-10T19:31:54.133Z,17.10
2019-04-10T19:34:25.513Z,20.80
2019-04-10T19:36:56.378Z,16.50
2019-04-10T19:39:26.980Z,19.27
2019-04-10T19:41:57.675Z,17.70
2019-04-10T19:44:28.950Z,18.47
2019-04-10T19:47:02.076Z,18.90
2019-04-10T19:49:34.926Z,18.67
2019-04-10T19:52:06.489Z,18.53
2019-04-10T19:54:36.618Z,17.23
2019-04-10T19:57:07.585Z,17.23
2019-04-10T19:59:40.016Z,17.67
2019-04-10T20:02:11.427Z,16.87
2019-04-10T20:04:41.618Z,18.57
2019-04-10T20:07:13.088Z,18.73
2019-04-10T20:09:44.410Z,15.77
2019-04-10T20:12:16.257Z,17.47
2019-04-10T20:14:46.867Z,17.40
2019-04-10T20:17:19.813Z,17.10
2019-04-10T20:19:52.685Z,17.50
2019-04-10T20:22:27.953Z,16.73
2019-04-10T20:25:00.461Z,14.53
2019-04-10T20:27:32.141Z,16.90
2019-04-10T20:30:05.737Z,15.43
2019-04-10T20:32:38.611Z,19.63
2019-04-10T20:35:10.281Z,15.87
2019-04-10T20:37:42.964Z,14.97
2019-04-10T20:40:15.937Z,16.10
2019-04-10T20:42:48.707Z,17.23
2019-04-10T20:45:21.133Z,16.27
2019-04-10T20:47:52.827Z,17.23
2019-04-10T20:50:23.964Z,16.20
2019-04-10T20:52:55.833Z,16.13
2019-04-10T20:55:28.254Z,16.17
2019-04-10T20:58:00.238Z,15.50
2019-04-10T21:00:34.359Z,16.77
2019-04-10T21:03:07.122Z,15.70
2019-04-10T21:05:37.663Z,19.07
2019-04-10T21:08:09.430Z,18.67
2019-04-10T21:10:40.873Z,17.13
2019-04-10T21:13:12.946Z,16.43
2019-04-10T21:15:46.306Z,17.17
2019-04-10T21:18:19.680Z,17.50
2019-04-10T21:20:53.631Z,16.50
2019-04-10T21:23:25.123Z,15.73
2019-04-10T21:25:55.629Z,16.53
2019-04-10T21:28:26.022Z,16.87
2019-04-10T21:31:15.757Z,17.60
2019-04-10T21:34:11.957Z,21.53
2019-04-10T21:36:43.507Z,17.43
2019-04-10T21:39:13.874Z,14.20
2019-04-10T21:41:45.228Z,16.77
2019-04-10T21:44:16.124Z,18.10
2019-04-10T21:46:48.412Z,15.30
2019-04-10T21:49:20.623Z,18.97
2019-04-10T21:51:51.690Z,19.03
2019-04-10T21:54:24.522Z,15.83
2019-04-10T21:56:55.616Z,20.13
2019-04-10T21:59:26.866Z,17.90
2019-04-10T22:01:59.223Z,17.50
2019-04-10T22:04:30.958Z,15.43
2019-04-10T22:07:18.906Z,16.90
2019-04-10T22:10:01.527Z,14.90
2019-04-10T22:12:38.994Z,17.20
2019-04-10T22:15:06.574Z,16.97
2019-04-10T22:17:36.794Z,18.77
2019-04-10T22:20:09.629Z,17.20
2019-04-10T22:22:40.803Z,18.90
2019-04-10T22:25:13.119Z,16.27
2019-04-10T22:27:44.155Z,15.87
2019-04-10T22:30:15.168Z,20.43
2019-04-10T22:32:45.649Z,16.10
2019-04-10T22:35:19.445Z,22.10
2019-04-10T22:37:50.362Z,17.23
2019-04-10T22:40:21.514Z,14.63
2019-04-10T22:42:53.173Z,17.07
2019-04-10T22:45:30.981Z,16.93
2019-04-10T22:48:01.348Z,16.03
2019-04-10T22:50:32.901Z,17.67
2019-04-10T22:53:05.385Z,17.70
2019-04-10T22:55:38.061Z,15.47
2019-04-10T22:58:09.002Z,16.93
2019-04-10T23:00:39.838Z,19.40
2019-04-10T23:03:11.394Z,15.73
2019-04-10T23:05:44.755Z,18.53
2019-04-10T23:08:15.617Z,16.20
2019-04-10T23:10:45.882Z,16.20
2019-04-10T23:13:18.040Z,16.43
2019-04-10T23:15:51.465Z,19.23
2019-04-10T23:18:22.087Z,17.07
2019-04-10T23:20:54.696Z,17.03
2019-04-10T23:23:25.585Z,15.23
2019-04-10T23:25:58.483Z,15.73
2019-04-10T23:28:28.781Z,15.63
2019-04-10T23:30:59.456Z,16.73
2019-04-10T23:33:30.192Z,15.03
2019-04-10T23:36:02.132Z,17.10
2019-04-10T23:38:33.251Z,15.27
2019-04-10T23:41:05.368Z,16.43
2019-04-10T23:43:36.352Z,15.50
2019-04-10T23:46:08.356Z,15.97
2019-04-10T23:48:39.492Z,14.20
2019-04-10T23:51:10.659Z,14.13
2019-04-10T23:53:41.973Z,16.00
2019-04-10T23:56:15.588Z,13.87
2019-04-10T23:58:48.056Z,16.23
